createdAt,value
2019-03-05T00:01:27.421Z,0.10
2019-03-05T00:03:55.833Z,0.20
2019-03-05T00:06:23.903Z,0.20
2019-03-05T00:08:52.312Z,0.30
2019-03-05T00:11:20.706Z,0.23
2019-03-05T00:13:49.109Z,0.40
2019-03-05T00:16:17.507Z,0.10
2019-03-05T00:18:45.912Z,0.20
2019-03-05T00:21:33.652Z,0.10
2019-03-05T00:24:38.620Z,0.13
2019-03-05T00:27:07.020Z,0.20
2019-03-05T00:29:50.323Z,0.47
2019-03-05T00:32:18.712Z,0.20
2019-03-05T00:35:09.680Z,0.10
2019-03-05T00:37:41.165Z,0.10
2019-03-05T00:40:21.477Z,0.10
2019-03-05T00:43:10.810Z,0.23
2019-03-05T00:45:48.114Z,0.30
2019-03-05T00:48:25.502Z,0.20
2019-03-05T00:51:24.996Z,0.30
2019-03-05T00:54:01.416Z,0.27
2019-03-05T00:56:44.383Z,0.10
2019-03-05T00:59:34.818Z,0.20
2019-03-05T01:02:04.483Z,0.30
2019-03-05T01:04:38.652Z,0.20
2019-03-05T01:07:07.584Z,0.10
2019-03-05T01:09:36.003Z,0.20
2019-03-05T01:12:05.922Z,0.23
2019-03-05T01:14:35.253Z,0.27
2019-03-05T01:17:03.907Z,0.20
2019-03-05T01:19:32.327Z,0.20
2019-03-05T01:22:00.711Z,0.20
2019-03-05T01:24:28.784Z,0.10
2019-03-05T01:26:57.255Z,0.23
2019-03-05T01:29:25.399Z,0.20
2019-03-05T01:31:58.052Z,0.30
2019-03-05T01:34:53.220Z,0.20
2019-03-05T01:37:21.688Z,0.10
2019-03-05T01:40:00.500Z,0.20
2019-03-05T01:42:28.892Z,0.30
2019-03-05T01:44:57.296Z,0.20
2019-03-05T01:47:25.704Z,0.20
2019-03-05T01:49:54.100Z,0.20
2019-03-05T01:52:22.496Z,0.10
2019-03-05T01:55:04.264Z,0.33
2019-03-05T01:57:32.642Z,0.20
2019-03-05T02:00:01.075Z,0.20
2019-03-05T02:02:29.460Z,0.20
2019-03-05T02:04:57.531Z,0.10
2019-03-05T02:07:25.925Z,0.27
2019-03-05T02:09:54.356Z,0.20
2019-03-05T02:12:22.424Z,0.10
2019-03-05T02:14:50.891Z,0.20
2019-03-05T02:17:19.296Z,0.30
2019-03-05T02:19:47.694Z,0.10
2019-03-05T02:22:25.451Z,0.10
2019-03-05T02:25:02.711Z,0.33
2019-03-05T02:28:08.919Z,0.30
2019-03-05T02:31:00.760Z,0.30
2019-03-05T02:34:06.685Z,0.20
2019-03-05T02:36:54.373Z,0.33
2019-03-05T02:39:31.951Z,0.10
2019-03-05T02:42:21.712Z,0.13
2019-03-05T02:45:14.036Z,0.27
2019-03-05T02:47:48.196Z,0.10
2019-03-05T02:50:40.357Z,0.03
2019-03-05T02:53:37.211Z,0.27
2019-03-05T02:56:42.923Z,0.30
2019-03-05T02:59:10.287Z,0.10
2019-03-05T03:01:40.348Z,0.13
2019-03-05T03:04:10.374Z,0.37
2019-03-05T03:06:39.358Z,0.17
2019-03-05T03:09:26.031Z,0.10
2019-03-05T03:11:54.429Z,0.30
2019-03-05T03:14:22.860Z,0.17
2019-03-05T03:16:51.332Z,0.20
2019-03-05T03:19:19.717Z,0.10
2019-03-05T03:22:07.485Z,0.20
2019-03-05T03:24:35.553Z,0.27
2019-03-05T03:27:03.981Z,0.30
2019-03-05T03:29:32.382Z,0.30
2019-03-05T03:32:00.804Z,0.30
2019-03-05T03:34:29.190Z,0.30
2019-03-05T03:37:16.936Z,0.20
2019-03-05T03:39:45.356Z,0.30
2019-03-05T03:42:13.749Z,0.20
2019-03-05T03:44:42.149Z,0.13
2019-03-05T03:47:29.901Z,0.30
2019-03-05T03:49:58.367Z,0.10
2019-03-05T03:52:26.785Z,0.47
2019-03-05T03:54:55.186Z,0.13
2019-03-05T03:57:23.584Z,0.10
2019-03-05T03:59:51.989Z,0.30
2019-03-05T04:02:20.418Z,0.10
2019-03-05T04:04:48.879Z,0.40
2019-03-05T04:07:16.943Z,0.30
2019-03-05T04:09:45.016Z,0.17
2019-03-05T04:12:13.088Z,0.10
2019-03-05T04:14:41.499Z,0.07
2019-03-05T04:17:09.920Z,0.37
2019-03-05T04:19:38.353Z,0.33
2019-03-05T04:22:06.752Z,0.20
2019-03-05T04:24:35.164Z,0.17
2019-03-05T04:27:03.249Z,0.30
2019-03-05T04:29:31.652Z,0.10
2019-03-05T04:32:00.045Z,0.10
2019-03-05T04:34:28.465Z,0.30
2019-03-05T04:36:59.258Z,0.23
2019-03-05T04:39:27.707Z,0.20
2019-03-05T04:41:56.103Z,0.30
2019-03-05T04:44:25.822Z,0.10
2019-03-05T04:46:54.216Z,0.30
2019-03-05T04:49:26.500Z,0.20
2019-03-05T04:51:56.016Z,0.20
2019-03-05T04:54:24.423Z,0.37
2019-03-05T04:56:52.816Z,0.30
2019-03-05T04:59:21.233Z,0.40
2019-03-05T05:01:49.305Z,0.17
2019-03-05T05:04:17.713Z,0.10
2019-03-05T05:06:46.102Z,0.25
2019-03-05T05:09:14.531Z,0.10
2019-03-05T05:11:42.948Z,0.47
2019-03-05T05:14:11.350Z,0.40
2019-03-05T05:16:39.734Z,0.40
2019-03-05T05:19:08.136Z,0.20
2019-03-05T05:21:36.536Z,0.30
2019-03-05T05:24:04.948Z,0.20
2019-03-05T05:26:33.038Z,0.20
2019-03-05T05:29:01.740Z,0.17
2019-03-05T05:31:30.152Z,0.20
2019-03-05T05:33:58.550Z,0.40
2019-03-05T05:36:26.961Z,0.30
2019-03-05T05:38:55.355Z,0.30
2019-03-05T05:41:23.767Z,0.20
2019-03-05T05:43:52.172Z,0.20
2019-03-05T05:46:20.573Z,0.20
2019-03-05T05:48:48.986Z,0.33
2019-03-05T05:51:17.395Z,0.20
2019-03-05T05:53:45.465Z,0.20
2019-03-05T05:56:13.891Z,0.30
2019-03-05T05:58:42.289Z,0.30
2019-03-05T06:01:11.873Z,0.30
2019-03-05T06:03:40.267Z,0.10
2019-03-05T06:06:08.667Z,0.10
2019-03-05T06:08:37.070Z,0.20
2019-03-05T06:11:05.661Z,0.40
2019-03-05T06:13:34.068Z,0.20
2019-03-05T06:16:02.469Z,0.30
2019-03-05T06:18:30.900Z,0.60
2019-03-05T06:20:59.390Z,0.10
2019-03-05T06:23:27.770Z,0.23
2019-03-05T06:25:56.179Z,0.23
2019-03-05T06:28:24.250Z,0.10
2019-03-05T06:30:52.333Z,0.37
2019-03-05T06:33:20.732Z,0.40
2019-03-05T06:35:48.821Z,0.20
2019-03-05T06:38:17.212Z,0.20
2019-03-05T06:40:45.292Z,0.30
2019-03-05T06:43:13.692Z,0.50
2019-03-05T06:45:42.112Z,0.00
2019-03-05T06:48:10.516Z,0.23
2019-03-05T06:50:38.923Z,0.10
2019-03-05T06:53:07.337Z,0.30
2019-03-05T06:55:35.729Z,0.70
2019-03-05T06:58:04.217Z,0.23
2019-03-05T07:00:41.024Z,0.30
2019-03-05T07:03:12.078Z,0.30
2019-03-05T07:06:16.901Z,0.30
2019-03-05T07:08:57.272Z,0.10
2019-03-05T07:11:46.552Z,0.17
2019-03-05T07:14:33.159Z,0.20
2019-03-05T07:17:27.173Z,0.20
2019-03-05T07:20:16.519Z,0.13
2019-03-05T07:23:02.962Z,0.25
2019-03-05T07:25:31.400Z,0.10
2019-03-05T07:27:59.811Z,0.10
2019-03-05T07:30:28.430Z,0.28
2019-03-05T07:32:56.835Z,0.37
2019-03-05T07:35:25.704Z,0.25
2019-03-05T07:37:54.115Z,0.20
2019-03-05T07:40:22.521Z,0.30
2019-03-05T07:45:36.708Z,0.10
2019-03-05T07:48:05.125Z,0.08
2019-03-05T07:50:33.588Z,0.20
2019-03-05T07:53:02.014Z,0.20
2019-03-05T07:55:30.407Z,0.10
2019-03-05T07:57:58.833Z,0.13
2019-03-05T08:00:27.233Z,0.10
2019-03-05T08:02:55.648Z,0.20
2019-03-05T08:05:24.049Z,0.15
2019-03-05T08:07:52.486Z,0.20
2019-03-05T08:10:23.749Z,0.10
2019-03-05T08:13:03.960Z,0.10
2019-03-05T08:15:49.130Z,0.10
2019-03-05T08:18:17.537Z,0.10
2019-03-05T08:20:45.913Z,0.10
2019-03-05T08:23:14.342Z,0.20
2019-03-05T08:25:42.752Z,0.20
2019-03-05T08:28:10.917Z,0.30
2019-03-05T08:30:39.312Z,0.03
2019-03-05T08:33:07.719Z,0.10
2019-03-05T08:35:36.127Z,0.10
2019-03-05T08:38:04.264Z,0.20
2019-03-05T08:40:32.679Z,0.20
2019-03-05T08:43:01.076Z,0.20
2019-03-05T08:45:29.880Z,0.20
2019-03-05T08:47:58.383Z,0.10
2019-03-05T08:50:26.805Z,0.10
2019-03-05T08:52:54.876Z,0.10
2019-03-05T08:55:23.305Z,0.30
2019-03-05T08:57:51.709Z,0.30
2019-03-05T09:00:21.356Z,0.25
2019-03-05T09:02:49.769Z,0.10
2019-03-05T09:05:19.144Z,0.30
2019-03-05T09:07:47.669Z,0.10
2019-03-05T09:10:21.559Z,0.20
2019-03-05T09:12:49.952Z,0.37
2019-03-05T09:15:19.601Z,0.10
2019-03-05T09:17:48.268Z,0.10
2019-03-05T09:20:20.027Z,0.20
2019-03-05T09:22:48.808Z,0.20
2019-03-05T09:25:18.648Z,0.10
2019-03-05T09:27:47.053Z,0.10
2019-03-05T09:30:20.488Z,0.10
2019-03-05T09:32:49.073Z,0.03
2019-03-05T09:35:17.433Z,0.35
2019-03-05T09:37:46.571Z,0.10
2019-03-05T09:40:29.206Z,0.75
2019-03-05T09:42:57.664Z,0.42
2019-03-05T09:45:28.177Z,0.28
2019-03-05T09:47:56.744Z,0.20
2019-03-05T09:50:25.169Z,0.10
2019-03-05T09:52:55.230Z,0.23
2019-03-05T09:55:29.423Z,0.42
2019-03-05T09:58:07.616Z,0.17
2019-03-05T10:00:29.369Z,0.10
2019-03-05T10:02:57.780Z,0.20
2019-03-05T10:05:26.209Z,0.10
2019-03-05T10:07:54.613Z,0.10
2019-03-05T10:10:30.293Z,0.20
2019-03-05T10:13:03.741Z,0.05
2019-03-05T10:15:29.102Z,0.20
2019-03-05T10:17:57.501Z,0.10
2019-03-05T10:20:30.917Z,0.20
2019-03-05T10:22:59.315Z,0.10
2019-03-05T10:25:28.272Z,0.20
2019-03-05T10:27:57.431Z,0.10
2019-03-05T10:30:31.176Z,0.13
2019-03-05T10:33:02.062Z,0.20
2019-03-05T10:35:30.162Z,0.20
2019-03-05T10:38:00.705Z,0.17
2019-03-05T10:40:34.510Z,0.10
2019-03-05T10:43:08.881Z,0.10
2019-03-05T10:45:35.868Z,0.20
2019-03-05T10:48:04.826Z,0.20
2019-03-05T10:50:32.969Z,0.05
2019-03-05T10:53:01.441Z,0.33
2019-03-05T10:55:30.000Z,0.40
2019-03-05T10:57:58.405Z,0.30
2019-03-05T11:00:36.177Z,0.20
2019-03-05T11:03:04.763Z,0.20
2019-03-05T11:05:53.005Z,0.15
2019-03-05T11:08:24.600Z,0.20
2019-03-05T11:10:54.019Z,0.20
2019-03-05T11:13:22.488Z,0.17
2019-03-05T11:16:01.548Z,0.20
2019-03-05T11:18:30.243Z,0.20
2019-03-05T11:20:58.478Z,0.10
2019-03-05T11:23:26.951Z,0.20
2019-03-05T11:25:55.450Z,0.10
2019-03-05T11:28:23.829Z,0.20
2019-03-05T11:30:52.252Z,0.10
2019-03-05T11:33:21.293Z,0.20
2019-03-05T11:35:49.372Z,0.15
2019-03-05T11:38:18.023Z,0.40
2019-03-05T11:40:46.112Z,0.10
2019-03-05T11:43:17.325Z,0.10
2019-03-05T11:45:46.067Z,0.20
2019-03-05T11:48:14.928Z,0.10
2019-03-05T11:50:43.716Z,0.03
2019-03-05T11:53:12.380Z,0.20
2019-03-05T11:55:40.959Z,0.10
2019-03-05T11:58:09.385Z,0.13
2019-03-05T12:00:42.384Z,0.10
2019-03-05T12:03:10.862Z,0.25
2019-03-05T12:05:39.399Z,0.10
2019-03-05T12:08:07.887Z,0.00
2019-03-05T12:10:36.369Z,0.10
2019-03-05T12:13:05.312Z,0.13
2019-03-05T12:15:36.791Z,0.10
2019-03-05T12:18:05.369Z,0.20
2019-03-05T12:20:33.776Z,0.10
2019-03-05T12:23:02.494Z,0.10
2019-03-05T12:25:31.044Z,0.10
2019-03-05T12:28:09.400Z,0.10
2019-03-05T12:30:31.220Z,0.10
2019-03-05T12:32:59.900Z,0.10
2019-03-05T12:35:28.302Z,0.10
2019-03-05T12:37:56.718Z,0.17
2019-03-05T12:40:26.559Z,0.20
2019-03-05T12:42:55.617Z,0.20
2019-03-05T12:45:24.952Z,0.00
2019-03-05T12:47:53.540Z,0.08
2019-03-05T12:50:29.169Z,0.10
2019-03-05T12:52:58.134Z,0.10
2019-03-05T12:55:26.533Z,0.20
2019-03-05T12:57:54.939Z,0.10
2019-03-05T13:00:26.154Z,0.15
2019-03-05T13:03:00.091Z,0.28
2019-03-05T13:05:28.570Z,0.30
2019-03-05T13:07:57.817Z,0.20
2019-03-05T13:10:27.692Z,0.00
2019-03-05T13:12:56.120Z,0.20
2019-03-05T13:15:27.337Z,0.10
2019-03-05T13:17:55.923Z,0.13
2019-03-05T13:20:26.218Z,0.00
2019-03-05T13:22:54.804Z,0.20
2019-03-05T13:25:24.298Z,0.10
2019-03-05T13:30:33.780Z,0.10
2019-03-05T13:33:02.579Z,0.10
2019-03-05T13:35:32.183Z,0.23
2019-03-05T13:38:11.734Z,0.30
2019-03-05T13:40:40.776Z,0.10
2019-03-05T13:43:09.679Z,0.10
2019-03-05T13:45:38.228Z,0.08
2019-03-05T13:48:28.074Z,0.20
2019-03-05T13:51:24.185Z,0.20
2019-03-05T13:54:15.408Z,0.15
2019-03-05T13:56:52.806Z,0.20
2019-03-05T14:00:02.926Z,0.20
2019-03-05T14:02:33.046Z,0.05
2019-03-05T14:05:19.354Z,0.20
2019-03-05T14:07:50.835Z,0.20
2019-03-05T14:10:19.398Z,0.10
2019-03-05T14:12:47.800Z,0.10
2019-03-05T14:15:16.820Z,0.10
2019-03-05T14:17:45.269Z,0.15
2019-03-05T14:20:16.004Z,0.20
2019-03-05T14:22:44.515Z,0.10
2019-03-05T14:25:15.303Z,0.10
2019-03-05T14:27:43.663Z,0.20
2019-03-05T14:30:15.197Z,0.10
2019-03-05T14:32:43.665Z,0.20
2019-03-05T14:35:13.688Z,0.10
2019-03-05T14:37:42.151Z,0.10
2019-03-05T14:40:24.595Z,0.30
2019-03-05T14:42:49.527Z,0.30
2019-03-05T14:45:23.785Z,0.20
2019-03-05T14:47:52.358Z,0.30
2019-03-05T14:50:20.804Z,0.10
2019-03-05T14:52:49.238Z,0.08
2019-03-05T14:55:17.911Z,0.23
2019-03-05T14:57:46.375Z,0.10
2019-03-05T15:00:19.975Z,0.17
2019-03-05T15:02:48.503Z,0.37
2019-03-05T15:05:17.011Z,0.20
2019-03-05T15:10:34.673Z,0.30
2019-03-05T15:13:14.961Z,0.10
2019-03-05T15:15:33.348Z,0.10
2019-03-05T15:18:01.449Z,0.10
2019-03-05T15:20:29.893Z,0.20
2019-03-05T15:22:58.442Z,0.20
2019-03-05T15:25:26.884Z,0.15
2019-03-05T15:27:55.340Z,0.10
2019-03-05T15:30:24.365Z,0.20
2019-03-05T15:33:02.512Z,0.13
2019-03-05T15:35:30.957Z,0.53
2019-03-05T15:37:59.377Z,0.30
2019-03-05T15:40:27.548Z,0.20
2019-03-05T15:42:56.109Z,0.10
2019-03-05T15:45:24.618Z,0.10
2019-03-05T15:47:53.081Z,0.20
2019-03-05T15:50:26.457Z,0.20
2019-03-05T15:52:54.959Z,0.23
2019-03-05T15:55:23.655Z,0.10
2019-03-05T15:57:52.052Z,0.10
2019-03-05T16:00:28.108Z,0.20
2019-03-05T16:02:56.518Z,0.00
2019-03-05T16:05:24.862Z,0.15
2019-03-05T16:07:53.263Z,0.10
2019-03-05T16:10:21.684Z,0.10
2019-03-05T16:12:50.070Z,0.20
2019-03-05T16:15:18.930Z,0.33
2019-03-05T16:17:47.525Z,0.10
2019-03-05T16:20:19.519Z,0.20
2019-03-05T16:22:51.102Z,0.23
2019-03-05T16:25:22.344Z,0.30
2019-03-05T16:27:50.482Z,0.25
2019-03-05T16:30:42.679Z,0.20
2019-03-05T16:33:18.649Z,0.20
2019-03-05T16:35:54.884Z,0.23
2019-03-05T16:38:24.927Z,0.13
2019-03-05T16:40:57.393Z,0.20
2019-03-05T16:43:30.160Z,0.30
2019-03-05T16:46:16.623Z,0.33
2019-03-05T16:48:55.752Z,0.40
2019-03-05T16:51:26.623Z,0.40
2019-03-05T16:54:16.173Z,0.55
2019-03-05T16:56:46.294Z,0.30
2019-03-05T16:59:16.329Z,0.20
2019-03-05T17:01:46.554Z,0.40
2019-03-05T17:04:32.896Z,0.23
2019-03-05T17:07:02.971Z,0.40
2019-03-05T17:09:38.624Z,0.35
2019-03-05T17:12:07.129Z,0.20
2019-03-05T17:14:35.536Z,0.13
2019-03-05T17:17:03.805Z,0.20
2019-03-05T17:19:32.203Z,0.35
2019-03-05T17:22:00.986Z,0.50
2019-03-05T17:24:29.376Z,1.65
2019-03-05T17:26:57.853Z,0.95
2019-03-05T17:29:26.255Z,0.35
2019-03-05T17:31:54.336Z,0.42
2019-03-05T17:34:42.450Z,0.93
2019-03-05T17:37:11.113Z,0.53
2019-03-05T17:39:39.534Z,0.60
2019-03-05T17:42:07.932Z,0.47
2019-03-05T17:44:36.326Z,0.20
2019-03-05T17:47:04.815Z,0.93
2019-03-05T17:49:33.200Z,0.40
2019-03-05T17:52:01.263Z,0.50
2019-03-05T17:54:29.724Z,0.72
2019-03-05T17:56:57.872Z,0.70
2019-03-05T17:59:26.297Z,0.40
2019-03-05T18:01:54.688Z,0.53
2019-03-05T18:04:23.099Z,1.00
2019-03-05T18:06:51.497Z,1.20
2019-03-05T18:09:19.913Z,0.60
2019-03-05T18:11:48.314Z,0.50
2019-03-05T18:14:16.712Z,0.62
2019-03-05T18:16:45.119Z,0.40
2019-03-05T18:19:13.528Z,0.82
2019-03-05T18:21:41.993Z,0.50
2019-03-05T18:24:10.399Z,0.50
2019-03-05T18:26:38.799Z,0.85
2019-03-05T18:29:07.209Z,1.60
2019-03-05T18:31:35.609Z,0.57
2019-03-05T18:34:04.386Z,0.20
2019-03-05T18:36:32.777Z,0.47
2019-03-05T18:39:01.187Z,0.30
2019-03-05T18:41:29.652Z,0.50
2019-03-05T18:43:58.069Z,0.35
2019-03-05T18:46:26.842Z,0.85
2019-03-05T18:48:54.925Z,1.52
2019-03-05T18:51:23.327Z,1.32
2019-03-05T18:53:51.729Z,0.88
2019-03-05T18:56:20.130Z,0.55
2019-03-05T18:58:48.532Z,0.30
2019-03-05T19:01:16.933Z,0.60
2019-03-05T19:03:45.019Z,0.40
2019-03-05T19:06:13.414Z,0.20
2019-03-05T19:08:41.820Z,0.25
2019-03-05T19:11:09.889Z,0.30
2019-03-05T19:13:38.294Z,0.37
2019-03-05T19:16:06.516Z,0.37
2019-03-05T19:18:34.933Z,0.60
2019-03-05T19:21:03.325Z,0.30
2019-03-05T19:23:31.743Z,0.30
2019-03-05T19:26:00.231Z,0.72
2019-03-05T19:28:28.634Z,0.50
2019-03-05T19:30:56.716Z,0.40
2019-03-05T19:33:25.123Z,0.35
2019-03-05T19:35:53.535Z,0.23
2019-03-05T19:38:21.929Z,0.50
2019-03-05T19:40:50.342Z,0.35
2019-03-05T19:43:18.760Z,0.60
2019-03-05T19:45:47.164Z,0.50
2019-03-05T19:48:15.568Z,0.40
2019-03-05T19:50:44.351Z,0.40
2019-03-05T19:53:12.764Z,0.47
2019-03-05T19:55:41.176Z,0.50
2019-03-05T19:58:11.281Z,0.40
2019-03-05T20:00:47.045Z,0.35
2019-03-05T20:03:15.167Z,0.30
2019-03-05T20:05:43.669Z,0.40
2019-03-05T20:08:12.067Z,0.20
2019-03-05T20:10:40.537Z,0.50
2019-03-05T20:13:08.931Z,0.57
2019-03-05T20:15:37.406Z,0.40
2019-03-05T20:18:07.411Z,0.50
2019-03-05T20:20:36.237Z,0.40
2019-03-05T20:23:05.197Z,0.30
2019-03-05T20:25:33.601Z,0.60
2019-03-05T20:28:02.071Z,0.40
2019-03-05T20:30:30.470Z,0.70
2019-03-05T20:32:58.864Z,0.30
2019-03-05T20:35:27.269Z,0.33
2019-03-05T20:37:55.663Z,0.40
2019-03-05T20:40:26.316Z,0.62
2019-03-05T20:42:54.708Z,0.70
2019-03-05T20:45:29.960Z,0.47
2019-03-05T20:47:58.437Z,0.23
2019-03-05T20:50:42.649Z,0.45
2019-03-05T20:53:10.732Z,0.40
2019-03-05T20:55:39.140Z,0.40
2019-03-05T20:58:07.597Z,0.50
2019-03-05T21:00:36.340Z,0.35
2019-03-05T21:03:08.820Z,0.40
2019-03-05T21:05:42.069Z,0.35
2019-03-05T21:08:10.470Z,0.40
2019-03-05T21:10:38.916Z,0.85
2019-03-05T21:13:07.857Z,1.95
2019-03-05T21:15:37.195Z,3.17
2019-03-05T21:18:10.607Z,2.75
2019-03-05T21:20:39.263Z,0.50
2019-03-05T21:23:07.978Z,0.50
2019-03-05T21:25:36.445Z,0.53
2019-03-05T21:28:04.991Z,1.02
2019-03-05T21:30:33.525Z,0.65
2019-03-05T21:33:01.936Z,0.40
2019-03-05T21:35:29.999Z,0.50
2019-03-05T21:37:58.409Z,0.50
2019-03-05T21:40:30.598Z,0.50
2019-03-05T21:42:59.001Z,0.40
2019-03-05T21:45:30.485Z,0.57
2019-03-05T21:48:00.472Z,0.40
2019-03-05T21:50:28.874Z,0.47
2019-03-05T21:52:57.280Z,0.30
2019-03-05T21:55:25.678Z,0.40
2019-03-05T21:57:54.103Z,0.40
2019-03-05T22:00:32.719Z,0.55
2019-03-05T22:03:02.167Z,0.40
2019-03-05T22:05:31.109Z,0.30
2019-03-05T22:07:59.589Z,0.50
2019-03-05T22:10:28.061Z,0.40
2019-03-05T22:12:56.469Z,0.47
2019-03-05T22:15:29.777Z,0.53
2019-03-05T22:17:58.186Z,0.60
2019-03-05T22:20:26.686Z,0.60
2019-03-05T22:22:55.131Z,0.60
2019-03-05T22:25:24.735Z,0.40
2019-03-05T22:27:53.212Z,0.50
2019-03-05T22:30:33.039Z,0.60
2019-03-05T22:33:01.440Z,0.47
2019-03-05T22:35:29.837Z,0.35
2019-03-05T22:37:58.242Z,0.40
2019-03-05T22:40:45.977Z,0.40
2019-03-05T22:43:14.380Z,0.20
2019-03-05T22:45:42.767Z,0.50
2019-03-05T22:48:11.177Z,0.63
2019-03-05T22:50:39.571Z,0.60
2019-03-05T22:53:08.009Z,0.80
2019-03-05T22:55:36.401Z,0.90
2019-03-05T22:58:04.804Z,0.50
2019-03-05T23:00:43.716Z,0.50
2019-03-05T23:03:17.973Z,0.50
2019-03-05T23:05:46.097Z,0.30
2019-03-05T23:08:33.845Z,1.15
2019-03-05T23:11:02.344Z,0.60
2019-03-05T23:13:30.791Z,0.57
2019-03-05T23:15:59.473Z,0.70
2019-03-05T23:18:27.890Z,0.67
2019-03-05T23:20:56.443Z,0.70
2019-03-05T23:23:24.965Z,0.67
2019-03-05T23:25:53.386Z,0.70
2019-03-05T23:28:22.266Z,0.60
2019-03-05T23:30:50.929Z,0.90
2019-03-05T23:33:19.074Z,0.80
2019-03-05T23:35:47.145Z,0.70
2019-03-05T23:38:15.545Z,0.70
2019-03-05T23:40:43.953Z,0.80
2019-03-05T23:43:12.429Z,0.70
2019-03-05T23:45:40.520Z,1.20
2019-03-05T23:48:08.972Z,1.07
2019-03-05T23:50:37.376Z,0.70
2019-03-05T23:53:05.445Z,1.03
2019-03-05T23:55:33.848Z,0.80
2019-03-05T23:58:02.250Z,1.00
